createdAt,value
2022-10-05T00:04:28.494Z,4.43
2022-10-05T00:14:54.445Z,4.90
2022-10-05T00:25:19.608Z,4.50
2022-10-05T00:35:45.565Z,4.60
2022-10-05T00:46:26.550Z,4.37
2022-10-05T00:57:35.989Z,5.00
2022-10-05T01:08:09.412Z,4.80
2022-10-05T01:18:42.373Z,5.32
2022-10-05T01:29:17.267Z,5.50
2022-10-05T01:39:53.257Z,5.30
2022-10-05T01:50:36.246Z,5.27
2022-10-05T02:01:04.416Z,5.13
2022-10-05T02:11:27.449Z,4.93
2022-10-05T02:21:57.024Z,4.82
2022-10-05T02:32:25.242Z,4.28
2022-10-05T02:43:07.499Z,5.03
2022-10-05T02:53:45.631Z,5.47
2022-10-05T03:04:16.828Z,4.95
2022-10-05T03:14:50.280Z,5.38
2022-10-05T03:25:34.232Z,5.60
2022-10-05T03:36:07.287Z,5.07
2022-10-05T03:46:40.654Z,5.07
2022-10-05T03:57:11.404Z,4.93
2022-10-05T04:07:43.587Z,4.85
2022-10-05T04:18:16.787Z,5.03
2022-10-05T04:28:46.460Z,5.50
2022-10-05T04:39:21.943Z,5.05
2022-10-05T04:50:10.669Z,5.47
2022-10-05T05:00:49.228Z,5.25
2022-10-05T05:11:24.437Z,4.90
2022-10-05T05:21:58.718Z,4.77
2022-10-05T05:32:36.457Z,4.28
2022-10-05T05:43:03.434Z,4.45
2022-10-05T05:53:30.828Z,5.63
2022-10-05T06:14:23.219Z,5.35
2022-10-05T06:35:23.822Z,5.03
2022-10-05T06:45:59.504Z,4.10
2022-10-05T06:56:48.746Z,4.80
2022-10-05T07:07:17.474Z,4.00
2022-10-05T07:17:49.154Z,3.72
2022-10-05T07:28:20.304Z,3.88
2022-10-05T07:38:47.842Z,2.90
2022-10-05T07:49:19.322Z,3.50
2022-10-05T07:59:49.230Z,3.20
2022-10-05T08:10:27.932Z,3.10
2022-10-05T08:20:53.727Z,3.53
2022-10-05T08:31:22.844Z,3.50
2022-10-05T08:42:20.654Z,5.18
2022-10-05T08:53:04.976Z,3.20
2022-10-05T09:03:59.059Z,3.53
2022-10-05T09:14:40.226Z,3.30
2022-10-05T09:25:17.136Z,4.28
2022-10-05T09:36:24.942Z,3.42
2022-10-05T09:47:07.683Z,3.70
2022-10-05T09:58:05.646Z,4.15
2022-10-05T10:08:38.419Z,3.47
2022-10-05T10:19:31.390Z,4.93
2022-10-05T10:30:19.545Z,3.65
2022-10-05T10:40:51.011Z,4.10
2022-10-05T10:51:20.208Z,3.70
2022-10-05T11:01:51.492Z,4.65
2022-10-05T11:12:50.081Z,4.47
2022-10-05T11:23:38.906Z,4.63
2022-10-05T11:34:39.763Z,4.43
2022-10-05T11:45:21.700Z,3.78
2022-10-05T11:55:45.940Z,3.22
2022-10-05T12:06:23.409Z,4.10
2022-10-05T12:16:51.958Z,3.95
2022-10-05T12:27:20.713Z,3.40
2022-10-05T12:37:47.672Z,3.30
2022-10-05T12:48:20.879Z,3.67
2022-10-05T12:58:53.214Z,4.20
2022-10-05T13:09:24.323Z,4.05
2022-10-05T13:19:48.100Z,4.40
2022-10-05T13:30:18.238Z,4.70
2022-10-05T13:40:52.713Z,3.50
2022-10-05T13:51:24.659Z,3.17
2022-10-05T14:01:53.582Z,3.50
2022-10-05T14:12:21.517Z,4.00
2022-10-05T14:22:44.112Z,4.35
2022-10-05T14:33:17.064Z,4.47
2022-10-05T14:43:39.007Z,4.20
2022-10-05T14:54:15.446Z,3.90
2022-10-05T15:04:46.991Z,3.85
2022-10-05T15:15:25.387Z,3.25
2022-10-05T15:25:55.018Z,4.95
2022-10-05T15:36:23.344Z,4.07
2022-10-05T15:46:56.440Z,5.22
2022-10-05T15:57:28.709Z,4.23
2022-10-05T16:08:15.489Z,3.88
2022-10-05T16:18:48.497Z,4.90
2022-10-05T16:29:17.747Z,5.22
2022-10-05T16:39:53.368Z,5.30
2022-10-05T17:01:00.916Z,6.53
2022-10-05T17:11:34.628Z,9.18
2022-10-05T17:22:00.967Z,7.93
2022-10-05T17:32:36.259Z,6.85
2022-10-05T17:43:24.013Z,8.23
2022-10-05T17:54:11.138Z,6.82
2022-10-05T18:05:16.666Z,8.00
2022-10-05T18:15:51.703Z,9.50
2022-10-05T18:26:31.395Z,8.90
2022-10-05T18:37:07.301Z,9.23
2022-10-05T18:47:40.828Z,7.32
2022-10-05T18:58:24.093Z,8.15
2022-10-05T19:09:05.381Z,8.33
2022-10-05T19:19:56.907Z,7.85
2022-10-05T19:30:23.083Z,6.95
2022-10-05T19:40:50.724Z,6.17
2022-10-05T19:51:29.337Z,5.50
2022-10-05T20:01:52.582Z,4.82
2022-10-05T20:12:22.507Z,5.22
2022-10-05T20:22:47.613Z,4.63
2022-10-05T20:33:18.467Z,5.07
2022-10-05T20:43:40.496Z,6.03
2022-10-05T20:54:06.477Z,4.97
2022-10-05T21:04:40.191Z,4.78
2022-10-05T21:15:04.697Z,5.53
2022-10-05T21:25:52.340Z,5.00
2022-10-05T21:36:45.584Z,4.93
2022-10-05T21:47:23.213Z,5.50
2022-10-05T21:58:13.860Z,5.82
2022-10-05T22:08:40.363Z,4.70
2022-10-05T22:19:06.063Z,5.07
2022-10-05T22:29:27.624Z,4.87
2022-10-05T22:39:50.539Z,5.57
2022-10-05T22:50:11.935Z,4.75
2022-10-05T23:00:56.369Z,5.53
2022-10-05T23:11:19.054Z,4.90
2022-10-05T23:21:42.242Z,5.57
2022-10-05T23:32:04.676Z,4.82
2022-10-05T23:42:27.705Z,5.93
2022-10-05T23:52:49.006Z,5.30
